sensor_id;sensor_type;location;lat;lon;timestamp;pressure;altitude;pressure_sealevel;temperature
72405;BMP280;60395;52.020;113.548;2023-07-31T00:00:08;92374.00;;;27.27
72405;BMP280;60395;52.020;113.548;2023-07-31T00:03:14;92380.63;;;27.43
72405;BMP280;60395;52.020;113.548;2023-07-31T00:06:17;92375.28;;;27.65
72405;BMP280;60395;52.020;113.548;2023-07-31T00:09:20;92388.22;;;27.92
72405;BMP280;60395;52.020;113.548;2023-07-31T00:12:25;92380.66;;;28.01
72405;BMP280;60395;52.020;113.548;2023-07-31T00:15:29;92390.09;;;28.16
72405;BMP280;60395;52.020;113.548;2023-07-31T00:18:32;92389.69;;;28.35
72405;BMP280;60395;52.020;113.548;2023-07-31T00:21:35;92395.84;;;28.83
72405;BMP280;60395;52.020;113.548;2023-07-31T00:24:39;92388.59;;;29.29
72405;BMP280;60395;52.020;113.548;2023-07-31T00:27:42;92396.03;;;29.63
72405;BMP280;60395;52.020;113.548;2023-07-31T00:30:47;92395.84;;;29.85
72405;BMP280;60395;52.020;113.548;2023-07-31T00:33:50;92405.00;;;29.75
72405;BMP280;60395;52.020;113.548;2023-07-31T00:36:53;92401.25;;;29.72
72405;BMP280;60395;52.020;113.548;2023-07-31T00:39:56;92396.69;;;29.77
72405;BMP280;60395;52.020;113.548;2023-07-31T00:43:00;92400.44;;;29.80
72405;BMP280;60395;52.020;113.548;2023-07-31T00:46:04;92397.75;;;29.99
72405;BMP280;60395;52.020;113.548;2023-07-31T00:49:08;92399.25;;;30.12
72405;BMP280;60395;52.020;113.548;2023-07-31T00:52:11;92388.41;;;30.44
72405;BMP280;60395;52.020;113.548;2023-07-31T00:55:15;92405.53;;;30.10
72405;BMP280;60395;52.020;113.548;2023-07-31T00:58:19;92401.72;;;29.94
72405;BMP280;60395;52.020;113.548;2023-07-31T01:01:22;92402.91;;;29.69
72405;BMP280;60395;52.020;113.548;2023-07-31T01:04:26;92399.63;;;29.81
72405;BMP280;60395;52.020;113.548;2023-07-31T01:07:48;92391.56;;;30.47
72405;BMP280;60395;52.020;113.548;2023-07-31T01:11:04;92388.84;;;30.66
72405;BMP280;60395;52.020;113.548;2023-07-31T01:14:11;92378.22;;;30.51
72405;BMP280;60395;52.020;113.548;2023-07-31T01:17:14;92379.47;;;30.46
72405;BMP280;60395;52.020;113.548;2023-07-31T01:20:21;92376.97;;;30.44
72405;BMP280;60395;52.020;113.548;2023-07-31T01:26:36;92365.09;;;30.41
72405;BMP280;60395;52.020;113.548;2023-07-31T01:29:49;92375.69;;;30.56
72405;BMP280;60395;52.020;113.548;2023-07-31T01:32:54;92345.28;;;30.42
72405;BMP280;60395;52.020;113.548;2023-07-31T01:35:59;92364.88;;;30.49
72405;BMP280;60395;52.020;113.548;2023-07-31T01:39:03;92370.03;;;30.90
72405;BMP280;60395;52.020;113.548;2023-07-31T01:42:06;92367.81;;;30.54
72405;BMP280;60395;52.020;113.548;2023-07-31T01:45:12;92364.25;;;30.42
72405;BMP280;60395;52.020;113.548;2023-07-31T01:48:15;92367.59;;;30.23
72405;BMP280;60395;52.020;113.548;2023-07-31T01:51:19;92360.50;;;30.07
72405;BMP280;60395;52.020;113.548;2023-07-31T01:54:22;92354.03;;;30.23
72405;BMP280;60395;52.020;113.548;2023-07-31T01:57:25;92357.34;;;30.50
72405;BMP280;60395;52.020;113.548;2023-07-31T02:00:28;92351.50;;;30.67
72405;BMP280;60395;52.020;113.548;2023-07-31T02:03:32;92355.84;;;30.90
72405;BMP280;60395;52.020;113.548;2023-07-31T02:06:35;92350.97;;;31.03
72405;BMP280;60395;52.020;113.548;2023-07-31T02:09:40;92348.91;;;31.04
72405;BMP280;60395;52.020;113.548;2023-07-31T02:12:43;92350.53;;;31.14
72405;BMP280;60395;52.020;113.548;2023-07-31T02:15:47;92341.47;;;31.35
72405;BMP280;60395;52.020;113.548;2023-07-31T02:18:51;92344.38;;;31.40
72405;BMP280;60395;52.020;113.548;2023-07-31T02:21:54;92346.38;;;31.59
72405;BMP280;60395;52.020;113.548;2023-07-31T02:24:57;92343.34;;;31.74
72405;BMP280;60395;52.020;113.548;2023-07-31T02:28:00;92345.44;;;31.73
72405;BMP280;60395;52.020;113.548;2023-07-31T02:31:04;92346.72;;;31.68
72405;BMP280;60395;52.020;113.548;2023-07-31T02:34:09;92337.19;;;31.56
72405;BMP280;60395;52.020;113.548;2023-07-31T02:37:12;92346.16;;;31.54
72405;BMP280;60395;52.020;113.548;2023-07-31T02:40:15;92348.53;;;31.45
72405;BMP280;60395;52.020;113.548;2023-07-31T02:43:18;92343.59;;;31.35
72405;BMP280;60395;52.020;113.548;2023-07-31T02:46:21;92343.34;;;31.37
72405;BMP280;60395;52.020;113.548;2023-07-31T02:49:27;92349.84;;;31.33
72405;BMP280;60395;52.020;113.548;2023-07-31T02:52:31;92355.88;;;31.40
72405;BMP280;60395;52.020;113.548;2023-07-31T02:55:34;92356.31;;;31.36
72405;BMP280;60395;52.020;113.548;2023-07-31T02:58:37;92358.44;;;31.29
72405;BMP280;60395;52.020;113.548;2023-07-31T03:01:40;92352.53;;;31.40
72405;BMP280;60395;52.020;113.548;2023-07-31T03:04:44;92349.19;;;31.33
72405;BMP280;60395;52.020;113.548;2023-07-31T03:07:47;92359.78;;;31.48
72405;BMP280;60395;52.020;113.548;2023-07-31T03:10:50;92340.22;;;31.71
72405;BMP280;60395;52.020;113.548;2023-07-31T03:13:53;92344.50;;;31.88
72405;BMP280;60395;52.020;113.548;2023-07-31T03:16:57;92341.81;;;31.81
72405;BMP280;60395;52.020;113.548;2023-07-31T03:20:00;92351.16;;;31.58
72405;BMP280;60395;52.020;113.548;2023-07-31T03:23:03;92344.97;;;31.47
72405;BMP280;60395;52.020;113.548;2023-07-31T03:26:07;92346.63;;;31.50
72405;BMP280;60395;52.020;113.548;2023-07-31T03:29:11;92344.53;;;31.51
72405;BMP280;60395;52.020;113.548;2023-07-31T03:32:14;92339.03;;;31.64
72405;BMP280;60395;52.020;113.548;2023-07-31T03:35:17;92338.56;;;31.74
72405;BMP280;60395;52.020;113.548;2023-07-31T03:38:21;92344.78;;;31.79
72405;BMP280;60395;52.020;113.548;2023-07-31T03:41:24;92340.78;;;31.85
72405;BMP280;60395;52.020;113.548;2023-07-31T03:44:27;92335.06;;;31.93
72405;BMP280;60395;52.020;113.548;2023-07-31T03:47:30;92328.03;;;32.07
72405;BMP280;60395;52.020;113.548;2023-07-31T03:50:34;92331.00;;;32.05
72405;BMP280;60395;52.020;113.548;2023-07-31T03:53:37;92331.97;;;32.15
72405;BMP280;60395;52.020;113.548;2023-07-31T03:56:40;92334.13;;;32.32
72405;BMP280;60395;52.020;113.548;2023-07-31T03:59:44;92328.72;;;32.50
72405;BMP280;60395;52.020;113.548;2023-07-31T04:02:47;92323.94;;;32.50
72405;BMP280;60395;52.020;113.548;2023-07-31T04:05:50;92325.78;;;32.52
72405;BMP280;60395;52.020;113.548;2023-07-31T04:08:54;92323.28;;;32.50
72405;BMP280;60395;52.020;113.548;2023-07-31T04:11:57;92316.16;;;32.53
72405;BMP280;60395;52.020;113.548;2023-07-31T04:15:00;92331.22;;;32.52
72405;BMP280;60395;52.020;113.548;2023-07-31T04:18:04;92328.72;;;32.50
72405;BMP280;60395;52.020;113.548;2023-07-31T04:21:07;92329.38;;;32.50
72405;BMP280;60395;52.020;113.548;2023-07-31T04:24:11;92332.72;;;32.51
72405;BMP280;60395;52.020;113.548;2023-07-31T04:27:14;92330.25;;;32.42
72405;BMP280;60395;52.020;113.548;2023-07-31T04:30:17;92325.34;;;32.32
72405;BMP280;60395;52.020;113.548;2023-07-31T04:33:20;92327.06;;;32.29
72405;BMP280;60395;52.020;113.548;2023-07-31T04:36:24;92327.44;;;32.31
72405;BMP280;60395;52.020;113.548;2023-07-31T04:39:27;92330.03;;;32.44
72405;BMP280;60395;52.020;113.548;2023-07-31T04:42:30;92337.22;;;32.59
72405;BMP280;60395;52.020;113.548;2023-07-31T04:45:33;92344.09;;;32.82
72405;BMP280;60395;52.020;113.548;2023-07-31T04:48:36;92344.63;;;33.06
72405;BMP280;60395;52.020;113.548;2023-07-31T04:51:40;92337.66;;;33.32
72405;BMP280;60395;52.020;113.548;2023-07-31T04:54:43;92332.63;;;33.45
72405;BMP280;60395;52.020;113.548;2023-07-31T04:57:46;92331.50;;;33.38
72405;BMP280;60395;52.020;113.548;2023-07-31T05:00:49;92328.38;;;33.35
72405;BMP280;60395;52.020;113.548;2023-07-31T05:03:52;92327.38;;;33.32
72405;BMP280;60395;52.020;113.548;2023-07-31T05:06:56;92316.78;;;33.41
72405;BMP280;60395;52.020;113.548;2023-07-31T05:09:59;92318.22;;;33.58
72405;BMP280;60395;52.020;113.548;2023-07-31T05:13:02;92317.47;;;33.81
72405;BMP280;60395;52.020;113.548;2023-07-31T05:16:05;92313.91;;;33.94
72405;BMP280;60395;52.020;113.548;2023-07-31T05:19:08;92307.38;;;33.97
72405;BMP280;60395;52.020;113.548;2023-07-31T05:22:12;92306.47;;;33.88
72405;BMP280;60395;52.020;113.548;2023-07-31T05:25:15;92308.06;;;33.52
72405;BMP280;60395;52.020;113.548;2023-07-31T05:28:18;92310.72;;;33.41
72405;BMP280;60395;52.020;113.548;2023-07-31T05:31:21;92307.91;;;33.30
72405;BMP280;60395;52.020;113.548;2023-07-31T05:34:25;92305.53;;;33.21
72405;BMP280;60395;52.020;113.548;2023-07-31T05:37:28;92301.72;;;33.07
72405;BMP280;60395;52.020;113.548;2023-07-31T05:40:33;92306.66;;;33.00
72405;BMP280;60395;52.020;113.548;2023-07-31T05:43:36;92296.91;;;32.90
72405;BMP280;60395;52.020;113.548;2023-07-31T05:46:39;92307.41;;;32.87
72405;BMP280;60395;52.020;113.548;2023-07-31T05:49:43;92307.34;;;32.94
72405;BMP280;60395;52.020;113.548;2023-07-31T05:52:47;92299.94;;;32.81
72405;BMP280;60395;52.020;113.548;2023-07-31T05:55:50;92307.41;;;32.70
72405;BMP280;60395;52.020;113.548;2023-07-31T05:58:53;92306.63;;;32.65
72405;BMP280;60395;52.020;113.548;2023-07-31T06:01:57;92306.69;;;32.58
72405;BMP280;60395;52.020;113.548;2023-07-31T06:05:00;92297.22;;;32.64
72405;BMP280;60395;52.020;113.548;2023-07-31T06:08:03;92286.13;;;32.83
72405;BMP280;60395;52.020;113.548;2023-07-31T06:11:07;92286.06;;;32.72
72405;BMP280;60395;52.020;113.548;2023-07-31T06:14:12;92283.97;;;32.73
72405;BMP280;60395;52.020;113.548;2023-07-31T06:17:16;92282.63;;;32.78
72405;BMP280;60395;52.020;113.548;2023-07-31T06:20:19;92280.34;;;32.74
72405;BMP280;60395;52.020;113.548;2023-07-31T06:23:23;92272.19;;;32.57
72405;BMP280;60395;52.020;113.548;2023-07-31T06:26:27;92276.47;;;32.49
72405;BMP280;60395;52.020;113.548;2023-07-31T06:29:31;92274.97;;;32.50
72405;BMP280;60395;52.020;113.548;2023-07-31T06:32:35;92280.13;;;32.59
72405;BMP280;60395;52.020;113.548;2023-07-31T06:35:39;92273.06;;;32.73
72405;BMP280;60395;52.020;113.548;2023-07-31T06:38:43;92264.28;;;32.72
72405;BMP280;60395;52.020;113.548;2023-07-31T06:41:46;92254.03;;;32.73
72405;BMP280;60395;52.020;113.548;2023-07-31T06:44:49;92255.03;;;32.76
72405;BMP280;60395;52.020;113.548;2023-07-31T06:47:52;92241.72;;;32.85
72405;BMP280;60395;52.020;113.548;2023-07-31T06:50:56;92236.91;;;32.85
72405;BMP280;60395;52.020;113.548;2023-07-31T06:54:00;92238.16;;;32.86
72405;BMP280;60395;52.020;113.548;2023-07-31T06:57:04;92237.69;;;32.90
72405;BMP280;60395;52.020;113.548;2023-07-31T07:00:09;92235.00;;;33.01
72405;BMP280;60395;52.020;113.548;2023-07-31T07:03:12;92233.47;;;33.09
72405;BMP280;60395;52.020;113.548;2023-07-31T07:06:17;92227.41;;;33.08
72405;BMP280;60395;52.020;113.548;2023-07-31T07:09:21;92236.44;;;33.36
72405;BMP280;60395;52.020;113.548;2023-07-31T07:12:24;92231.38;;;33.09
72405;BMP280;60395;52.020;113.548;2023-07-31T07:15:27;92225.03;;;33.00
72405;BMP280;60395;52.020;113.548;2023-07-31T07:18:31;92230.69;;;32.98
72405;BMP280;60395;52.020;113.548;2023-07-31T07:21:35;92219.09;;;33.04
72405;BMP280;60395;52.020;113.548;2023-07-31T07:24:38;92233.81;;;33.00
72405;BMP280;60395;52.020;113.548;2023-07-31T07:27:42;92224.19;;;32.84
72405;BMP280;60395;52.020;113.548;2023-07-31T07:30:51;92229.06;;;32.77
72405;BMP280;60395;52.020;113.548;2023-07-31T07:33:55;92223.25;;;32.57
72405;BMP280;60395;52.020;113.548;2023-07-31T07:37:00;92230.31;;;32.43
72405;BMP280;60395;52.020;113.548;2023-07-31T07:40:03;92235.44;;;32.34
72405;BMP280;60395;52.020;113.548;2023-07-31T07:43:07;92233.78;;;32.30
72405;BMP280;60395;52.020;113.548;2023-07-31T07:46:10;92233.03;;;32.43
72405;BMP280;60395;52.020;113.548;2023-07-31T07:49:13;92238.59;;;32.47
72405;BMP280;60395;52.020;113.548;2023-07-31T07:52:17;92239.50;;;32.46
72405;BMP280;60395;52.020;113.548;2023-07-31T07:55:20;92235.06;;;32.49
72405;BMP280;60395;52.020;113.548;2023-07-31T07:58:23;92231.75;;;32.42
72405;BMP280;60395;52.020;113.548;2023-07-31T08:01:26;92240.09;;;32.46
72405;BMP280;60395;52.020;113.548;2023-07-31T08:04:30;92241.94;;;32.48
72405;BMP280;60395;52.020;113.548;2023-07-31T08:07:33;92240.66;;;32.53
72405;BMP280;60395;52.020;113.548;2023-07-31T08:10:36;92235.00;;;32.73
72405;BMP280;60395;52.020;113.548;2023-07-31T08:13:39;92233.47;;;32.91
72405;BMP280;60395;52.020;113.548;2023-07-31T08:16:42;92236.84;;;32.92
72405;BMP280;60395;52.020;113.548;2023-07-31T08:19:46;92243.38;;;32.88
72405;BMP280;60395;52.020;113.548;2023-07-31T08:22:49;92248.03;;;32.83
72405;BMP280;60395;52.020;113.548;2023-07-31T08:25:52;92245.63;;;32.75
72405;BMP280;60395;52.020;113.548;2023-07-31T08:28:55;92253.56;;;32.59
72405;BMP280;60395;52.020;113.548;2023-07-31T08:32:00;92254.91;;;32.47
72405;BMP280;60395;52.020;113.548;2023-07-31T08:35:03;92251.94;;;32.32
72405;BMP280;60395;52.020;113.548;2023-07-31T08:38:06;92249.09;;;32.45
72405;BMP280;60395;52.020;113.548;2023-07-31T08:41:10;92247.44;;;32.24
72405;BMP280;60395;52.020;113.548;2023-07-31T08:44:14;92244.81;;;32.17
72405;BMP280;60395;52.020;113.548;2023-07-31T08:47:19;92238.72;;;32.17
72405;BMP280;60395;52.020;113.548;2023-07-31T08:50:23;92238.72;;;32.17
72405;BMP280;60395;52.020;113.548;2023-07-31T08:53:26;92235.34;;;32.23
72405;BMP280;60395;52.020;113.548;2023-07-31T08:56:32;92242.38;;;32.26
72405;BMP280;60395;52.020;113.548;2023-07-31T08:59:35;92236.34;;;32.26
72405;BMP280;60395;52.020;113.548;2023-07-31T09:02:51;92238.16;;;32.34
72405;BMP280;60395;52.020;113.548;2023-07-31T09:05:56;92234.09;;;32.22
72405;BMP280;60395;52.020;113.548;2023-07-31T09:09:00;92236.78;;;32.22
72405;BMP280;60395;52.020;113.548;2023-07-31T09:12:04;92234.88;;;32.27
72405;BMP280;60395;52.020;113.548;2023-07-31T09:15:08;92237.81;;;32.25
72405;BMP280;60395;52.020;113.548;2023-07-31T09:18:28;92234.41;;;32.31
72405;BMP280;60395;52.020;113.548;2023-07-31T09:21:31;92241.88;;;32.37
72405;BMP280;60395;52.020;113.548;2023-07-31T09:24:35;92231.69;;;32.31
72405;BMP280;60395;52.020;113.548;2023-07-31T09:30:52;92238.19;;;32.10
72405;BMP280;60395;52.020;113.548;2023-07-31T09:33:55;92241.63;;;31.97
72405;BMP280;60395;52.020;113.548;2023-07-31T09:37:03;92243.22;;;31.83
72405;BMP280;60395;52.020;113.548;2023-07-31T09:40:08;92249.31;;;31.77
72405;BMP280;60395;52.020;113.548;2023-07-31T09:43:21;92251.69;;;31.92
72405;BMP280;60395;52.020;113.548;2023-07-31T09:46:27;92251.56;;;31.81
72405;BMP280;60395;52.020;113.548;2023-07-31T09:49:30;92253.91;;;31.78
72405;BMP280;60395;52.020;113.548;2023-07-31T09:52:33;92253.69;;;31.80
72405;BMP280;60395;52.020;113.548;2023-07-31T09:55:38;92258.72;;;31.78
72405;BMP280;60395;52.020;113.548;2023-07-31T09:58:41;92261.88;;;31.74
72405;BMP280;60395;52.020;113.548;2023-07-31T10:01:45;92264.19;;;31.71
72405;BMP280;60395;52.020;113.548;2023-07-31T10:04:50;92272.63;;;31.63
72405;BMP280;60395;52.020;113.548;2023-07-31T10:07:54;92268.03;;;31.61
72405;BMP280;60395;52.020;113.548;2023-07-31T10:11:02;92270.34;;;31.59
72405;BMP280;60395;52.020;113.548;2023-07-31T10:14:05;92269.84;;;31.39
72405;BMP280;60395;52.020;113.548;2023-07-31T10:17:10;92267.63;;;31.22
72405;BMP280;60395;52.020;113.548;2023-07-31T10:20:15;92269.19;;;31.08
72405;BMP280;60395;52.020;113.548;2023-07-31T10:23:23;92255.03;;;30.94
72405;BMP280;60395;52.020;113.548;2023-07-31T10:26:27;92271.38;;;30.81
72405;BMP280;60395;52.020;113.548;2023-07-31T10:29:31;92269.09;;;30.77
72405;BMP280;60395;52.020;113.548;2023-07-31T10:32:35;92258.47;;;30.75
72405;BMP280;60395;52.020;113.548;2023-07-31T10:35:39;92260.38;;;30.70
72405;BMP280;60395;52.020;113.548;2023-07-31T10:38:42;92262.88;;;30.65
72405;BMP280;60395;52.020;113.548;2023-07-31T10:41:46;92275.41;;;30.62
72405;BMP280;60395;52.020;113.548;2023-07-31T10:44:49;92276.88;;;30.55
72405;BMP280;60395;52.020;113.548;2023-07-31T10:48:00;92277.09;;;30.53
72405;BMP280;60395;52.020;113.548;2023-07-31T10:51:08;92283.78;;;30.41
72405;BMP280;60395;52.020;113.548;2023-07-31T10:54:21;92275.06;;;30.21
72405;BMP280;60395;52.020;113.548;2023-07-31T10:57:24;92273.81;;;30.07
72405;BMP280;60395;52.020;113.548;2023-07-31T11:00:29;92263.63;;;29.94
72405;BMP280;60395;52.020;113.548;2023-07-31T11:06:56;92272.34;;;29.68
72405;BMP280;60395;52.020;113.548;2023-07-31T11:09:59;92271.06;;;29.48
72405;BMP280;60395;52.020;113.548;2023-07-31T11:13:04;92270.41;;;29.28
72405;BMP280;60395;52.020;113.548;2023-07-31T11:16:09;92280.34;;;29.10
72405;BMP280;60395;52.020;113.548;2023-07-31T11:19:12;92274.66;;;28.92
72405;BMP280;60395;52.020;113.548;2023-07-31T11:22:17;92270.88;;;28.82
72405;BMP280;60395;52.020;113.548;2023-07-31T11:25:22;92274.72;;;28.64
72405;BMP280;60395;52.020;113.548;2023-07-31T11:28:26;92278.59;;;28.52
72405;BMP280;60395;52.020;113.548;2023-07-31T11:31:29;92268.34;;;28.39
72405;BMP280;60395;52.020;113.548;2023-07-31T11:34:32;92264.72;;;28.28
72405;BMP280;60395;52.020;113.548;2023-07-31T11:37:42;92275.94;;;28.24
72405;BMP280;60395;52.020;113.548;2023-07-31T11:40:46;92284.00;;;28.17
72405;BMP280;60395;52.020;113.548;2023-07-31T11:43:59;92273.94;;;28.09
72405;BMP280;60395;52.020;113.548;2023-07-31T11:47:26;92284.75;;;27.87
72405;BMP280;60395;52.020;113.548;2023-07-31T11:50:33;92282.03;;;27.81
72405;BMP280;60395;52.020;113.548;2023-07-31T11:53:42;92287.53;;;27.72
72405;BMP280;60395;52.020;113.548;2023-07-31T11:56:46;92290.38;;;27.64
72405;BMP280;60395;52.020;113.548;2023-07-31T11:59:50;92301.28;;;27.55
72405;BMP280;60395;52.020;113.548;2023-07-31T12:02:54;92294.69;;;27.39
72405;BMP280;60395;52.020;113.548;2023-07-31T12:05:58;92296.06;;;27.32
72405;BMP280;60395;52.020;113.548;2023-07-31T12:09:05;92312.59;;;27.28
72405;BMP280;60395;52.020;113.548;2023-07-31T12:12:09;92310.91;;;27.24
72405;BMP280;60395;52.020;113.548;2023-07-31T12:15:15;92319.19;;;27.22
72405;BMP280;60395;52.020;113.548;2023-07-31T12:18:20;92320.81;;;27.19
72405;BMP280;60395;52.020;113.548;2023-07-31T12:21:23;92327.81;;;27.16
72405;BMP280;60395;52.020;113.548;2023-07-31T12:24:30;92327.75;;;27.09
72405;BMP280;60395;52.020;113.548;2023-07-31T12:27:33;92312.47;;;26.99
72405;BMP280;60395;52.020;113.548;2023-07-31T12:30:39;92315.53;;;26.95
72405;BMP280;60395;52.020;113.548;2023-07-31T12:33:43;92310.97;;;26.94
72405;BMP280;60395;52.020;113.548;2023-07-31T12:36:46;92316.97;;;26.94
72405;BMP280;60395;52.020;113.548;2023-07-31T12:39:54;92322.19;;;26.96
72405;BMP280;60395;52.020;113.548;2023-07-31T12:42:57;92323.53;;;26.89
72405;BMP280;60395;52.020;113.548;2023-07-31T12:46:01;92325.16;;;26.86
72405;BMP280;60395;52.020;113.548;2023-07-31T12:49:04;92325.34;;;26.84
72405;BMP280;60395;52.020;113.548;2023-07-31T12:52:07;92337.28;;;26.78
72405;BMP280;60395;52.020;113.548;2023-07-31T12:55:10;92338.28;;;26.75
72405;BMP280;60395;52.020;113.548;2023-07-31T12:58:14;92322.66;;;26.69
72405;BMP280;60395;52.020;113.548;2023-07-31T13:01:17;92328.41;;;26.65
72405;BMP280;60395;52.020;113.548;2023-07-31T13:04:20;92317.16;;;26.62
72405;BMP280;60395;52.020;113.548;2023-07-31T13:07:24;92300.28;;;26.55
72405;BMP280;60395;52.020;113.548;2023-07-31T13:10:28;92311.31;;;26.60
72405;BMP280;60395;52.020;113.548;2023-07-31T13:13:32;92314.09;;;26.51
72405;BMP280;60395;52.020;113.548;2023-07-31T13:16:35;92314.97;;;26.41
72405;BMP280;60395;52.020;113.548;2023-07-31T13:19:39;92323.31;;;26.30
72405;BMP280;60395;52.020;113.548;2023-07-31T13:22:42;92319.72;;;26.25
72405;BMP280;60395;52.020;113.548;2023-07-31T13:25:48;92327.78;;;26.25
72405;BMP280;60395;52.020;113.548;2023-07-31T13:28:51;92318.19;;;26.20
72405;BMP280;60395;52.020;113.548;2023-07-31T13:31:54;92322.66;;;26.15
72405;BMP280;60395;52.020;113.548;2023-07-31T13:34:59;92311.78;;;26.08
72405;BMP280;60395;52.020;113.548;2023-07-31T13:38:02;92321.91;;;26.08
72405;BMP280;60395;52.020;113.548;2023-07-31T13:41:05;92316.53;;;26.08
72405;BMP280;60395;52.020;113.548;2023-07-31T13:44:09;92315.44;;;26.05
72405;BMP280;60395;52.020;113.548;2023-07-31T13:47:12;92306.91;;;26.02
72405;BMP280;60395;52.020;113.548;2023-07-31T13:50:15;92304.41;;;26.00
72405;BMP280;60395;52.020;113.548;2023-07-31T13:53:19;92303.47;;;25.95
72405;BMP280;60395;52.020;113.548;2023-07-31T13:56:23;92308.75;;;25.89
72405;BMP280;60395;52.020;113.548;2023-07-31T13:59:26;92323.25;;;25.77
72405;BMP280;60395;52.020;113.548;2023-07-31T14:02:29;92333.47;;;25.59
72405;BMP280;60395;52.020;113.548;2023-07-31T14:05:33;92330.72;;;25.44
72405;BMP280;60395;52.020;113.548;2023-07-31T14:08:36;92325.34;;;25.35
72405;BMP280;60395;52.020;113.548;2023-07-31T14:11:39;92317.69;;;25.23
72405;BMP280;60395;52.020;113.548;2023-07-31T14:14:43;92324.47;;;25.22
72405;BMP280;60395;52.020;113.548;2023-07-31T14:17:47;92326.75;;;25.02
72405;BMP280;60395;52.020;113.548;2023-07-31T14:20:56;92340.22;;;24.94
72405;BMP280;60395;52.020;113.548;2023-07-31T14:23:59;92340.88;;;24.86
72405;BMP280;60395;52.020;113.548;2023-07-31T14:27:02;92344.69;;;24.71
72405;BMP280;60395;52.020;113.548;2023-07-31T14:30:06;92341.41;;;24.62
72405;BMP280;60395;52.020;113.548;2023-07-31T14:33:10;92347.72;;;24.59
72405;BMP280;60395;52.020;113.548;2023-07-31T14:36:13;92342.50;;;24.57
72405;BMP280;60395;52.020;113.548;2023-07-31T14:39:19;92338.72;;;24.54
72405;BMP280;60395;52.020;113.548;2023-07-31T14:42:25;92349.28;;;24.47
72405;BMP280;60395;52.020;113.548;2023-07-31T14:45:28;92358.16;;;24.37
72405;BMP280;60395;52.020;113.548;2023-07-31T14:48:31;92360.84;;;24.37
72405;BMP280;60395;52.020;113.548;2023-07-31T14:51:35;92348.38;;;24.34
72405;BMP280;60395;52.020;113.548;2023-07-31T14:54:38;92353.41;;;24.29
72405;BMP280;60395;52.020;113.548;2023-07-31T14:57:41;92349.94;;;24.31
72405;BMP280;60395;52.020;113.548;2023-07-31T15:00:44;92359.59;;;24.28
72405;BMP280;60395;52.020;113.548;2023-07-31T15:03:47;92353.91;;;24.23
72405;BMP280;60395;52.020;113.548;2023-07-31T15:06:52;92355.78;;;24.16
72405;BMP280;60395;52.020;113.548;2023-07-31T15:09:55;92355.28;;;24.05
72405;BMP280;60395;52.020;113.548;2023-07-31T15:12:59;92354.97;;;24.01
72405;BMP280;60395;52.020;113.548;2023-07-31T15:16:04;92354.03;;;23.96
72405;BMP280;60395;52.020;113.548;2023-07-31T15:19:07;92353.22;;;23.88
72405;BMP280;60395;52.020;113.548;2023-07-31T15:22:10;92356.97;;;23.83
72405;BMP280;60395;52.020;113.548;2023-07-31T15:25:14;92348.28;;;23.82
72405;BMP280;60395;52.020;113.548;2023-07-31T15:28:18;92343.28;;;23.78
72405;BMP280;60395;52.020;113.548;2023-07-31T15:31:21;92351.13;;;23.72
72405;BMP280;60395;52.020;113.548;2023-07-31T15:34:27;92342.25;;;23.65
72405;BMP280;60395;52.020;113.548;2023-07-31T15:37:31;92349.06;;;23.64
72405;BMP280;60395;52.020;113.548;2023-07-31T15:40:34;92341.03;;;23.64
72405;BMP280;60395;52.020;113.548;2023-07-31T15:43:37;92340.53;;;23.61
72405;BMP280;60395;52.020;113.548;2023-07-31T15:46:40;92341.75;;;23.54
72405;BMP280;60395;52.020;113.548;2023-07-31T15:49:44;92340.31;;;23.46
72405;BMP280;60395;52.020;113.548;2023-07-31T15:52:47;92347.88;;;23.44
72405;BMP280;60395;52.020;113.548;2023-07-31T15:55:50;92340.97;;;23.47
72405;BMP280;60395;52.020;113.548;2023-07-31T15:58:54;92340.16;;;23.48
72405;BMP280;60395;52.020;113.548;2023-07-31T16:02:00;92337.50;;;23.48
72405;BMP280;60395;52.020;113.548;2023-07-31T16:05:04;92328.19;;;23.47
72405;BMP280;60395;52.020;113.548;2023-07-31T16:08:08;92334.34;;;23.46
72405;BMP280;60395;52.020;113.548;2023-07-31T16:11:11;92326.63;;;23.42
72405;BMP280;60395;52.020;113.548;2023-07-31T16:14:15;92326.91;;;23.38
72405;BMP280;60395;52.020;113.548;2023-07-31T16:17:18;92319.00;;;23.36
72405;BMP280;60395;52.020;113.548;2023-07-31T16:20:21;92319.28;;;23.32
72405;BMP280;60395;52.020;113.548;2023-07-31T16:23:25;92305.38;;;23.20
72405;BMP280;60395;52.020;113.548;2023-07-31T16:26:28;92316.41;;;23.16
72405;BMP280;60395;52.020;113.548;2023-07-31T16:29:31;92315.44;;;23.11
72405;BMP280;60395;52.020;113.548;2023-07-31T16:32:34;92307.41;;;23.11
72405;BMP280;60395;52.020;113.548;2023-07-31T16:35:38;92302.38;;;23.16
72405;BMP280;60395;52.020;113.548;2023-07-31T16:38:41;92302.25;;;23.18
72405;BMP280;60395;52.020;113.548;2023-07-31T16:41:44;92301.13;;;23.15
72405;BMP280;60395;52.020;113.548;2023-07-31T16:44:48;92306.47;;;23.15
72405;BMP280;60395;52.020;113.548;2023-07-31T16:47:51;92297.44;;;23.01
72405;BMP280;60395;52.020;113.548;2023-07-31T16:50:55;92306.84;;;22.92
72405;BMP280;60395;52.020;113.548;2023-07-31T16:53:58;92297.69;;;22.89
72405;BMP280;60395;52.020;113.548;2023-07-31T16:57:01;92304.13;;;22.83
72405;BMP280;60395;52.020;113.548;2023-07-31T17:00:05;92299.69;;;22.80
72405;BMP280;60395;52.020;113.548;2023-07-31T17:03:08;92304.72;;;22.75
72405;BMP280;60395;52.020;113.548;2023-07-31T17:06:12;92311.59;;;22.72
72405;BMP280;60395;52.020;113.548;2023-07-31T17:09:15;92311.59;;;22.64
72405;BMP280;60395;52.020;113.548;2023-07-31T17:12:18;92306.03;;;22.57
72405;BMP280;60395;52.020;113.548;2023-07-31T17:15:21;92303.47;;;22.55
72405;BMP280;60395;52.020;113.548;2023-07-31T17:18:25;92295.88;;;22.49